sensor_id;sensor_type;location;lat;lon;timestamp;temperature;humidity
59857;DHT22;45733;52.668;6.860;2023-03-14T00:01:46;11.10;99.90
59857;DHT22;45733;52.668;6.860;2023-03-14T00:04:14;11.10;99.90
59857;DHT22;45733;52.668;6.860;2023-03-14T00:06:39;11.20;99.90
59857;DHT22;45733;52.668;6.860;2023-03-14T00:09:05;11.30;99.90
59857;DHT22;45733;52.668;6.860;2023-03-14T00:11:31;11.30;99.90
59857;DHT22;45733;52.668;6.860;2023-03-14T00:13:57;11.30;99.90
59857;DHT22;45733;52.668;6.860;2023-03-14T00:16:22;11.40;99.90
59857;DHT22;45733;52.668;6.860;2023-03-14T00:18:48;11.40;99.90
59857;DHT22;45733;52.668;6.860;2023-03-14T00:21:14;11.50;99.90
59857;DHT22;45733;52.668;6.860;2023-03-14T00:23:41;11.50;99.90
59857;DHT22;45733;52.668;6.860;2023-03-14T00:26:10;11.50;99.90
59857;DHT22;45733;52.668;6.860;2023-03-14T00:28:36;11.50;99.90
59857;DHT22;45733;52.668;6.860;2023-03-14T00:31:03;11.50;99.90
59857;DHT22;45733;52.668;6.860;2023-03-14T00:33:29;11.50;99.90
59857;DHT22;45733;52.668;6.860;2023-03-14T00:35:57;11.50;99.90
59857;DHT22;45733;52.668;6.860;2023-03-14T00:38:23;11.50;99.90
59857;DHT22;45733;52.668;6.860;2023-03-14T00:40:50;11.50;99.90
59857;DHT22;45733;52.668;6.860;2023-03-14T00:43:16;11.60;99.90
59857;DHT22;45733;52.668;6.860;2023-03-14T00:45:42;11.60;99.90
59857;DHT22;45733;52.668;6.860;2023-03-14T00:48:08;11.60;99.90
59857;DHT22;45733;52.668;6.860;2023-03-14T00:50:33;11.60;99.90
59857;DHT22;45733;52.668;6.860;2023-03-14T00:52:59;11.60;99.90
59857;DHT22;45733;52.668;6.860;2023-03-14T00:55:25;11.60;99.90
59857;DHT22;45733;52.668;6.860;2023-03-14T00:57:51;11.50;99.90
59857;DHT22;45733;52.668;6.860;2023-03-14T01:00:17;11.60;99.90
59857;DHT22;45733;52.668;6.860;2023-03-14T01:02:43;11.60;99.90
59857;DHT22;45733;52.668;6.860;2023-03-14T01:05:08;11.70;99.90
59857;DHT22;45733;52.668;6.860;2023-03-14T01:07:36;11.70;99.90
59857;DHT22;45733;52.668;6.860;2023-03-14T01:10:03;11.70;99.90
59857;DHT22;45733;52.668;6.860;2023-03-14T01:12:28;11.70;99.90
59857;DHT22;45733;52.668;6.860;2023-03-14T01:14:54;11.70;99.90
59857;DHT22;45733;52.668;6.860;2023-03-14T01:17:20;11.70;99.90
59857;DHT22;45733;52.668;6.860;2023-03-14T01:19:46;11.50;99.90
59857;DHT22;45733;52.668;6.860;2023-03-14T01:22:11;11.20;99.90
59857;DHT22;45733;52.668;6.860;2023-03-14T01:24:37;11.00;99.90
59857;DHT22;45733;52.668;6.860;2023-03-14T01:27:03;10.50;99.90
59857;DHT22;45733;52.668;6.860;2023-03-14T01:29:29;10.10;99.90
59857;DHT22;45733;52.668;6.860;2023-03-14T01:31:55;10.00;99.90
59857;DHT22;45733;52.668;6.860;2023-03-14T01:34:20;10.00;99.90
59857;DHT22;45733;52.668;6.860;2023-03-14T01:36:46;10.00;99.90
59857;DHT22;45733;52.668;6.860;2023-03-14T01:39:12;10.30;99.90
59857;DHT22;45733;52.668;6.860;2023-03-14T01:41:39;10.30;99.90
59857;DHT22;45733;52.668;6.860;2023-03-14T01:44:08;10.30;99.90
59857;DHT22;45733;52.668;6.860;2023-03-14T01:46:38;10.40;99.90
59857;DHT22;45733;52.668;6.860;2023-03-14T01:49:21;10.40;99.90
59857;DHT22;45733;52.668;6.860;2023-03-14T01:51:56;10.50;99.90
59857;DHT22;45733;52.668;6.860;2023-03-14T01:57:07;10.40;99.90
59857;DHT22;45733;52.668;6.860;2023-03-14T01:59:34;10.40;99.90
59857;DHT22;45733;52.668;6.860;2023-03-14T02:02:01;10.40;99.90
59857;DHT22;45733;52.668;6.860;2023-03-14T02:04:31;10.50;99.90
59857;DHT22;45733;52.668;6.860;2023-03-14T02:07:19;10.40;99.90
59857;DHT22;45733;52.668;6.860;2023-03-14T02:09:46;10.50;99.90
59857;DHT22;45733;52.668;6.860;2023-03-14T02:12:15;10.50;99.90
59857;DHT22;45733;52.668;6.860;2023-03-14T02:14:42;10.40;99.90
59857;DHT22;45733;52.668;6.860;2023-03-14T02:17:14;10.40;99.90
59857;DHT22;45733;52.668;6.860;2023-03-14T02:22:27;10.30;99.90
59857;DHT22;45733;52.668;6.860;2023-03-14T02:27:32;10.20;99.90
59857;DHT22;45733;52.668;6.860;2023-03-14T02:30:02;10.20;99.90
59857;DHT22;45733;52.668;6.860;2023-03-14T02:32:31;10.30;99.90
59857;DHT22;45733;52.668;6.860;2023-03-14T02:34:59;10.20;99.90
59857;DHT22;45733;52.668;6.860;2023-03-14T02:37:53;10.30;99.90
59857;DHT22;45733;52.668;6.860;2023-03-14T02:40:21;10.30;99.90
59857;DHT22;45733;52.668;6.860;2023-03-14T02:42:46;10.30;99.90
59857;DHT22;45733;52.668;6.860;2023-03-14T02:47:45;10.20;99.90
59857;DHT22;45733;52.668;6.860;2023-03-14T02:50:24;10.20;99.90
59857;DHT22;45733;52.668;6.860;2023-03-14T02:52:51;10.20;99.90
59857;DHT22;45733;52.668;6.860;2023-03-14T02:55:23;10.10;99.90
59857;DHT22;45733;52.668;6.860;2023-03-14T02:57:50;10.20;99.90
59857;DHT22;45733;52.668;6.860;2023-03-14T03:00:16;10.10;99.90
59857;DHT22;45733;52.668;6.860;2023-03-14T03:02:42;10.10;99.90
59857;DHT22;45733;52.668;6.860;2023-03-14T03:05:08;10.20;99.90
59857;DHT22;45733;52.668;6.860;2023-03-14T03:07:33;10.20;99.90
59857;DHT22;45733;52.668;6.860;2023-03-14T03:09:59;10.10;99.90
59857;DHT22;45733;52.668;6.860;2023-03-14T03:12:25;10.00;99.90
59857;DHT22;45733;52.668;6.860;2023-03-14T03:14:51;9.90;99.90
59857;DHT22;45733;52.668;6.860;2023-03-14T03:17:17;9.80;99.90
59857;DHT22;45733;52.668;6.860;2023-03-14T03:19:43;9.90;99.90
59857;DHT22;45733;52.668;6.860;2023-03-14T03:22:08;9.80;99.90
59857;DHT22;45733;52.668;6.860;2023-03-14T03:24:34;9.90;99.90
59857;DHT22;45733;52.668;6.860;2023-03-14T03:27:00;9.80;99.90
59857;DHT22;45733;52.668;6.860;2023-03-14T03:29:25;9.80;99.90
59857;DHT22;45733;52.668;6.860;2023-03-14T03:31:51;9.80;99.90
59857;DHT22;45733;52.668;6.860;2023-03-14T03:34:17;9.80;99.90
59857;DHT22;45733;52.668;6.860;2023-03-14T03:36:42;9.80;99.90
59857;DHT22;45733;52.668;6.860;2023-03-14T03:39:08;9.80;99.90
59857;DHT22;45733;52.668;6.860;2023-03-14T03:41:34;9.80;99.90
59857;DHT22;45733;52.668;6.860;2023-03-14T03:43:59;9.80;99.90
59857;DHT22;45733;52.668;6.860;2023-03-14T03:46:25;9.80;99.90
59857;DHT22;45733;52.668;6.860;2023-03-14T03:48:55;9.80;99.90
59857;DHT22;45733;52.668;6.860;2023-03-14T03:51:21;9.80;99.90
59857;DHT22;45733;52.668;6.860;2023-03-14T03:53:47;9.70;99.90
59857;DHT22;45733;52.668;6.860;2023-03-14T03:56:13;9.80;99.90
59857;DHT22;45733;52.668;6.860;2023-03-14T03:58:38;9.80;99.90
59857;DHT22;45733;52.668;6.860;2023-03-14T04:01:08;9.80;99.90
59857;DHT22;45733;52.668;6.860;2023-03-14T04:03:34;9.80;99.90
59857;DHT22;45733;52.668;6.860;2023-03-14T04:08:25;9.80;99.90
59857;DHT22;45733;52.668;6.860;2023-03-14T04:10:55;9.80;99.90
59857;DHT22;45733;52.668;6.860;2023-03-14T04:13:21;9.80;99.90
59857;DHT22;45733;52.668;6.860;2023-03-14T04:15:46;9.80;99.90
59857;DHT22;45733;52.668;6.860;2023-03-14T04:18:12;9.80;99.90
59857;DHT22;45733;52.668;6.860;2023-03-14T04:20:37;9.80;99.90
59857;DHT22;45733;52.668;6.860;2023-03-14T04:23:03;9.70;99.90
59857;DHT22;45733;52.668;6.860;2023-03-14T04:25:29;9.70;99.90
59857;DHT22;45733;52.668;6.860;2023-03-14T04:27:54;9.80;99.90
59857;DHT22;45733;52.668;6.860;2023-03-14T04:30:20;9.80;99.90
59857;DHT22;45733;52.668;6.860;2023-03-14T04:32:46;9.70;99.90
59857;DHT22;45733;52.668;6.860;2023-03-14T04:35:11;9.80;99.90
59857;DHT22;45733;52.668;6.860;2023-03-14T04:37:37;9.80;99.90
59857;DHT22;45733;52.668;6.860;2023-03-14T04:40:03;9.80;99.90
59857;DHT22;45733;52.668;6.860;2023-03-14T04:42:31;9.80;99.90
59857;DHT22;45733;52.668;6.860;2023-03-14T04:44:57;9.80;99.90
59857;DHT22;45733;52.668;6.860;2023-03-14T04:47:23;9.70;99.90
59857;DHT22;45733;52.668;6.860;2023-03-14T04:49:48;9.80;99.90
59857;DHT22;45733;52.668;6.860;2023-03-14T04:52:14;9.80;99.90
59857;DHT22;45733;52.668;6.860;2023-03-14T04:54:40;9.80;99.90
59857;DHT22;45733;52.668;6.860;2023-03-14T04:57:06;9.70;99.90
59857;DHT22;45733;52.668;6.860;2023-03-14T04:59:31;9.70;99.90
59857;DHT22;45733;52.668;6.860;2023-03-14T05:01:57;9.70;99.90
59857;DHT22;45733;52.668;6.860;2023-03-14T05:04:23;9.70;99.90
59857;DHT22;45733;52.668;6.860;2023-03-14T05:06:48;9.70;99.90
59857;DHT22;45733;52.668;6.860;2023-03-14T05:09:14;9.70;99.90
59857;DHT22;45733;52.668;6.860;2023-03-14T05:11:40;9.70;99.90
59857;DHT22;45733;52.668;6.860;2023-03-14T05:14:06;9.70;99.90
59857;DHT22;45733;52.668;6.860;2023-03-14T05:16:32;9.70;99.90
59857;DHT22;45733;52.668;6.860;2023-03-14T05:19:01;9.70;99.90
59857;DHT22;45733;52.668;6.860;2023-03-14T05:21:27;9.70;99.90
59857;DHT22;45733;52.668;6.860;2023-03-14T05:23:53;9.70;99.90
59857;DHT22;45733;52.668;6.860;2023-03-14T05:26:18;9.60;99.90
59857;DHT22;45733;52.668;6.860;2023-03-14T05:28:44;9.70;99.90
59857;DHT22;45733;52.668;6.860;2023-03-14T05:31:10;9.70;99.90
59857;DHT22;45733;52.668;6.860;2023-03-14T05:33:36;9.70;99.90
59857;DHT22;45733;52.668;6.860;2023-03-14T05:36:01;9.70;99.90
59857;DHT22;45733;52.668;6.860;2023-03-14T05:38:27;9.60;99.90
59857;DHT22;45733;52.668;6.860;2023-03-14T05:40:53;9.60;99.90
59857;DHT22;45733;52.668;6.860;2023-03-14T05:43:18;9.70;99.90
59857;DHT22;45733;52.668;6.860;2023-03-14T05:45:44;9.70;99.90
59857;DHT22;45733;52.668;6.860;2023-03-14T05:48:10;9.70;99.90
59857;DHT22;45733;52.668;6.860;2023-03-14T05:50:36;9.60;99.90
59857;DHT22;45733;52.668;6.860;2023-03-14T05:53:02;9.60;99.90
59857;DHT22;45733;52.668;6.860;2023-03-14T05:55:28;9.60;99.90
59857;DHT22;45733;52.668;6.860;2023-03-14T05:57:54;9.60;99.90
59857;DHT22;45733;52.668;6.860;2023-03-14T06:00:20;9.70;99.90
59857;DHT22;45733;52.668;6.860;2023-03-14T06:02:46;9.70;99.90
59857;DHT22;45733;52.668;6.860;2023-03-14T06:05:12;9.60;99.90
59857;DHT22;45733;52.668;6.860;2023-03-14T06:07:37;9.70;99.90
59857;DHT22;45733;52.668;6.860;2023-03-14T06:10:04;9.70;99.90
59857;DHT22;45733;52.668;6.860;2023-03-14T06:12:29;9.80;99.90
59857;DHT22;45733;52.668;6.860;2023-03-14T06:14:55;9.80;99.90
59857;DHT22;45733;52.668;6.860;2023-03-14T06:17:21;9.90;99.90
59857;DHT22;45733;52.668;6.860;2023-03-14T06:19:47;9.90;99.90
59857;DHT22;45733;52.668;6.860;2023-03-14T06:22:12;9.90;99.90
59857;DHT22;45733;52.668;6.860;2023-03-14T06:24:38;10.00;99.90
59857;DHT22;45733;52.668;6.860;2023-03-14T06:27:04;9.90;99.90
59857;DHT22;45733;52.668;6.860;2023-03-14T06:29:30;10.00;99.90
59857;DHT22;45733;52.668;6.860;2023-03-14T06:31:56;9.90;99.90
59857;DHT22;45733;52.668;6.860;2023-03-14T06:34:21;9.90;99.90
59857;DHT22;45733;52.668;6.860;2023-03-14T06:36:47;9.80;99.90
59857;DHT22;45733;52.668;6.860;2023-03-14T06:39:13;9.90;99.90
59857;DHT22;45733;52.668;6.860;2023-03-14T06:41:38;9.80;99.90
59857;DHT22;45733;52.668;6.860;2023-03-14T06:44:05;9.80;99.90
59857;DHT22;45733;52.668;6.860;2023-03-14T06:46:30;9.80;99.90
59857;DHT22;45733;52.668;6.860;2023-03-14T06:48:56;9.70;99.90
59857;DHT22;45733;52.668;6.860;2023-03-14T06:51:22;9.80;99.90
59857;DHT22;45733;52.668;6.860;2023-03-14T06:53:48;9.70;99.90
59857;DHT22;45733;52.668;6.860;2023-03-14T06:56:13;9.70;99.90
59857;DHT22;45733;52.668;6.860;2023-03-14T06:58:39;9.70;99.90
59857;DHT22;45733;52.668;6.860;2023-03-14T07:01:05;9.70;99.90
59857;DHT22;45733;52.668;6.860;2023-03-14T07:03:31;9.70;99.90
59857;DHT22;45733;52.668;6.860;2023-03-14T07:05:57;9.70;99.90
59857;DHT22;45733;52.668;6.860;2023-03-14T07:08:22;9.70;99.90
59857;DHT22;45733;52.668;6.860;2023-03-14T07:10:48;9.80;99.90
59857;DHT22;45733;52.668;6.860;2023-03-14T07:13:14;9.80;99.90
59857;DHT22;45733;52.668;6.860;2023-03-14T07:15:39;9.80;99.90
59857;DHT22;45733;52.668;6.860;2023-03-14T07:18:05;9.80;99.90
59857;DHT22;45733;52.668;6.860;2023-03-14T07:20:31;9.80;99.90
59857;DHT22;45733;52.668;6.860;2023-03-14T07:22:58;9.90;99.90
59857;DHT22;45733;52.668;6.860;2023-03-14T07:25:25;9.80;99.90
59857;DHT22;45733;52.668;6.860;2023-03-14T07:27:51;9.90;99.90
59857;DHT22;45733;52.668;6.860;2023-03-14T07:30:17;10.00;99.90
59857;DHT22;45733;52.668;6.860;2023-03-14T07:32:42;10.00;99.90
59857;DHT22;45733;52.668;6.860;2023-03-14T07:35:09;10.00;99.90
59857;DHT22;45733;52.668;6.860;2023-03-14T07:37:34;10.10;99.90
59857;DHT22;45733;52.668;6.860;2023-03-14T07:40:00;10.00;99.90
59857;DHT22;45733;52.668;6.860;2023-03-14T07:42:26;10.00;99.90
59857;DHT22;45733;52.668;6.860;2023-03-14T07:44:51;10.00;99.90
59857;DHT22;45733;52.668;6.860;2023-03-14T07:47:23;10.00;99.90
59857;DHT22;45733;52.668;6.860;2023-03-14T07:49:49;9.90;99.90
59857;DHT22;45733;52.668;6.860;2023-03-14T07:52:15;9.70;99.90
59857;DHT22;45733;52.668;6.860;2023-03-14T07:54:40;9.30;99.90
59857;DHT22;45733;52.668;6.860;2023-03-14T07:57:06;9.20;99.90
59857;DHT22;45733;52.668;6.860;2023-03-14T07:59:32;9.20;99.90
59857;DHT22;45733;52.668;6.860;2023-03-14T08:01:57;9.10;99.90
59857;DHT22;45733;52.668;6.860;2023-03-14T08:04:24;9.20;99.90
59857;DHT22;45733;52.668;6.860;2023-03-14T08:06:49;9.20;99.90
59857;DHT22;45733;52.668;6.860;2023-03-14T08:09:15;9.10;99.90
59857;DHT22;45733;52.668;6.860;2023-03-14T08:11:41;9.00;99.90
59857;DHT22;45733;52.668;6.860;2023-03-14T08:14:06;8.70;99.90
59857;DHT22;45733;52.668;6.860;2023-03-14T08:16:35;8.20;99.90
59857;DHT22;45733;52.668;6.860;2023-03-14T08:19:01;8.10;99.90
59857;DHT22;45733;52.668;6.860;2023-03-14T08:21:27;8.20;99.90
59857;DHT22;45733;52.668;6.860;2023-03-14T08:23:52;7.50;99.90
59857;DHT22;45733;52.668;6.860;2023-03-14T08:26:18;7.50;99.90
59857;DHT22;45733;52.668;6.860;2023-03-14T08:28:44;7.10;99.90
59857;DHT22;45733;52.668;6.860;2023-03-14T08:31:09;7.20;99.90
59857;DHT22;45733;52.668;6.860;2023-03-14T08:33:35;7.10;99.90
59857;DHT22;45733;52.668;6.860;2023-03-14T08:36:01;7.10;99.90
59857;DHT22;45733;52.668;6.860;2023-03-14T08:38:27;6.90;99.90
59857;DHT22;45733;52.668;6.860;2023-03-14T08:41:00;6.80;99.90
59857;DHT22;45733;52.668;6.860;2023-03-14T08:43:27;6.60;99.90
59857;DHT22;45733;52.668;6.860;2023-03-14T08:45:53;6.60;99.90
59857;DHT22;45733;52.668;6.860;2023-03-14T08:48:18;6.50;99.90
59857;DHT22;45733;52.668;6.860;2023-03-14T08:50:45;6.20;99.90
59857;DHT22;45733;52.668;6.860;2023-03-14T08:53:11;6.20;99.90
59857;DHT22;45733;52.668;6.860;2023-03-14T08:55:37;5.90;99.90
59857;DHT22;45733;52.668;6.860;2023-03-14T08:58:02;6.00;99.90
59857;DHT22;45733;52.668;6.860;2023-03-14T09:00:28;6.10;99.90
59857;DHT22;45733;52.668;6.860;2023-03-14T09:02:54;5.80;99.90
59857;DHT22;45733;52.668;6.860;2023-03-14T09:05:19;5.60;99.90
59857;DHT22;45733;52.668;6.860;2023-03-14T09:07:45;5.70;99.90
59857;DHT22;45733;52.668;6.860;2023-03-14T09:10:11;5.80;99.90
59857;DHT22;45733;52.668;6.860;2023-03-14T09:12:37;5.80;99.90
59857;DHT22;45733;52.668;6.860;2023-03-14T09:15:03;5.80;99.90
59857;DHT22;45733;52.668;6.860;2023-03-14T09:17:29;5.70;99.90
59857;DHT22;45733;52.668;6.860;2023-03-14T09:19:54;5.70;99.90
59857;DHT22;45733;52.668;6.860;2023-03-14T09:22:20;5.80;99.90
59857;DHT22;45733;52.668;6.860;2023-03-14T09:24:47;5.80;99.90
59857;DHT22;45733;52.668;6.860;2023-03-14T09:27:13;6.00;99.90
59857;DHT22;45733;52.668;6.860;2023-03-14T09:29:38;5.90;99.90
59857;DHT22;45733;52.668;6.860;2023-03-14T09:32:04;5.90;99.90
59857;DHT22;45733;52.668;6.860;2023-03-14T09:34:30;6.10;99.90
59857;DHT22;45733;52.668;6.860;2023-03-14T09:36:55;6.10;99.90
59857;DHT22;45733;52.668;6.860;2023-03-14T09:39:22;6.10;99.90
59857;DHT22;45733;52.668;6.860;2023-03-14T09:41:49;6.20;99.90
59857;DHT22;45733;52.668;6.860;2023-03-14T09:46:51;6.40;99.90
59857;DHT22;45733;52.668;6.860;2023-03-14T09:49:20;6.50;99.90
59857;DHT22;45733;52.668;6.860;2023-03-14T09:51:49;6.30;99.90
59857;DHT22;45733;52.668;6.860;2023-03-14T09:54:37;6.60;99.90
59857;DHT22;45733;52.668;6.860;2023-03-14T09:57:06;6.60;99.90
59857;DHT22;45733;52.668;6.860;2023-03-14T09:59:33;6.70;99.90
59857;DHT22;45733;52.668;6.860;2023-03-14T10:02:02;6.80;99.90
59857;DHT22;45733;52.668;6.860;2023-03-14T10:04:35;6.80;99.90
59857;DHT22;45733;52.668;6.860;2023-03-14T10:07:04;6.90;99.90
59857;DHT22;45733;52.668;6.860;2023-03-14T10:09:30;6.90;99.90
59857;DHT22;45733;52.668;6.860;2023-03-14T10:11:57;7.20;99.90
59857;DHT22;45733;52.668;6.860;2023-03-14T10:14:45;7.40;99.90
59857;DHT22;45733;52.668;6.860;2023-03-14T10:17:42;7.50;99.90
59857;DHT22;45733;52.668;6.860;2023-03-14T10:22:53;7.80;99.90
59857;DHT22;45733;52.668;6.860;2023-03-14T10:25:48;7.80;99.90
59857;DHT22;45733;52.668;6.860;2023-03-14T10:30:51;8.00;99.90
59857;DHT22;45733;52.668;6.860;2023-03-14T10:33:21;8.00;99.90
59857;DHT22;45733;52.668;6.860;2023-03-14T10:35:56;7.90;99.90
59857;DHT22;45733;52.668;6.860;2023-03-14T10:38:25;7.80;99.90
59857;DHT22;45733;52.668;6.860;2023-03-14T10:40:54;8.00;99.90
59857;DHT22;45733;52.668;6.860;2023-03-14T10:43:25;7.90;99.90
59857;DHT22;45733;52.668;6.860;2023-03-14T10:46:01;7.50;99.90
59857;DHT22;45733;52.668;6.860;2023-03-14T10:48:36;7.10;99.90
59857;DHT22;45733;52.668;6.860;2023-03-14T10:51:25;6.70;99.90
59857;DHT22;45733;52.668;6.860;2023-03-14T10:54:03;6.60;99.90
59857;DHT22;45733;52.668;6.860;2023-03-14T10:56:37;7.00;99.90
59857;DHT22;45733;52.668;6.860;2023-03-14T10:59:04;7.20;99.90
59857;DHT22;45733;52.668;6.860;2023-03-14T11:01:39;7.20;99.90
59857;DHT22;45733;52.668;6.860;2023-03-14T11:07:07;7.50;99.90
59857;DHT22;45733;52.668;6.860;2023-03-14T11:10:18;7.40;99.90
59857;DHT22;45733;52.668;6.860;2023-03-14T11:12:54;7.50;99.90
59857;DHT22;45733;52.668;6.860;2023-03-14T11:15:46;7.30;99.90
59857;DHT22;45733;52.668;6.860;2023-03-14T11:18:43;7.30;99.90
59857;DHT22;45733;52.668;6.860;2023-03-14T11:29:21;7.40;99.90
59857;DHT22;45733;52.668;6.860;2023-03-14T11:31:47;7.50;99.90
59857;DHT22;45733;52.668;6.860;2023-03-14T11:34:17;7.70;99.90
59857;DHT22;45733;52.668;6.860;2023-03-14T11:37:04;7.80;99.90
59857;DHT22;45733;52.668;6.860;2023-03-14T11:39:40;7.50;99.90
59857;DHT22;45733;52.668;6.860;2023-03-14T11:42:16;7.60;99.90
59857;DHT22;45733;52.668;6.860;2023-03-14T11:44:44;7.60;99.90
59857;DHT22;45733;52.668;6.860;2023-03-14T11:47:22;7.60;99.90
59857;DHT22;45733;52.668;6.860;2023-03-14T11:50:13;7.80;99.90
59857;DHT22;45733;52.668;6.860;2023-03-14T11:52:41;8.10;99.90
59857;DHT22;45733;52.668;6.860;2023-03-14T11:57:47;8.30;99.90
59857;DHT22;45733;52.668;6.860;2023-03-14T12:00:20;8.00;99.90
59857;DHT22;45733;52.668;6.860;2023-03-14T12:05:55;7.80;99.90
59857;DHT22;45733;52.668;6.860;2023-03-14T12:08:49;8.00;99.90
59857;DHT22;45733;52.668;6.860;2023-03-14T12:11:33;8.10;99.90
59857;DHT22;45733;52.668;6.860;2023-03-14T12:14:00;8.30;99.90
59857;DHT22;45733;52.668;6.860;2023-03-14T12:16:37;8.40;99.90
59857;DHT22;45733;52.668;6.860;2023-03-14T12:24:29;8.80;99.90
59857;DHT22;45733;52.668;6.860;2023-03-14T12:26:57;8.50;99.90
59857;DHT22;45733;52.668;6.860;2023-03-14T12:29:24;8.10;99.90
59857;DHT22;45733;52.668;6.860;2023-03-14T12:32:07;8.10;99.90
59857;DHT22;45733;52.668;6.860;2023-03-14T12:34:40;7.90;99.90
59857;DHT22;45733;52.668;6.860;2023-03-14T12:37:14;8.10;99.90
59857;DHT22;45733;52.668;6.860;2023-03-14T12:42:38;8.30;99.90
59857;DHT22;45733;52.668;6.860;2023-03-14T12:45:21;8.70;99.90
59857;DHT22;45733;52.668;6.860;2023-03-14T12:50:25;9.20;99.90
59857;DHT22;45733;52.668;6.860;2023-03-14T12:55:51;9.40;99.90
59857;DHT22;45733;52.668;6.860;2023-03-14T12:58:32;8.80;99.90
59857;DHT22;45733;52.668;6.860;2023-03-14T13:01:03;8.30;99.90
59857;DHT22;45733;52.668;6.860;2023-03-14T13:03:55;8.00;99.90
59857;DHT22;45733;52.668;6.860;2023-03-14T13:06:51;7.90;99.90
59857;DHT22;45733;52.668;6.860;2023-03-14T13:12:10;8.70;99.90
59857;DHT22;45733;52.668;6.860;2023-03-14T13:14:43;8.90;99.90
59857;DHT22;45733;52.668;6.860;2023-03-14T13:17:12;8.80;99.90
59857;DHT22;45733;52.668;6.860;2023-03-14T13:19:38;9.00;99.90
59857;DHT22;45733;52.668;6.860;2023-03-14T13:22:38;8.70;99.90
59857;DHT22;45733;52.668;6.860;2023-03-14T13:25:03;8.40;99.90
59857;DHT22;45733;52.668;6.860;2023-03-14T13:27:31;8.40;99.90
59857;DHT22;45733;52.668;6.860;2023-03-14T13:29:58;8.10;99.90
59857;DHT22;45733;52.668;6.860;2023-03-14T13:32:28;7.90;99.90
59857;DHT22;45733;52.668;6.860;2023-03-14T13:34:57;7.90;99.90
59857;DHT22;45733;52.668;6.860;2023-03-14T13:37:25;8.00;99.90
59857;DHT22;45733;52.668;6.860;2023-03-14T13:39:56;8.10;99.90
59857;DHT22;45733;52.668;6.860;2023-03-14T13:42:29;8.60;99.90
59857;DHT22;45733;52.668;6.860;2023-03-14T13:44:56;8.90;99.90
59857;DHT22;45733;52.668;6.860;2023-03-14T13:47:24;9.10;99.90
59857;DHT22;45733;52.668;6.860;2023-03-14T13:49:50;9.30;99.90
59857;DHT22;45733;52.668;6.860;2023-03-14T13:52:28;9.10;99.90
59857;DHT22;45733;52.668;6.860;2023-03-14T13:54:56;9.00;99.90
59857;DHT22;45733;52.668;6.860;2023-03-14T13:57:22;9.10;99.90
59857;DHT22;45733;52.668;6.860;2023-03-14T14:00:16;9.00;99.90
59857;DHT22;45733;52.668;6.860;2023-03-14T14:02:42;9.20;99.90
59857;DHT22;45733;52.668;6.860;2023-03-14T14:05:10;9.40;99.90
59857;DHT22;45733;52.668;6.860;2023-03-14T14:07:36;8.80;99.90
59857;DHT22;45733;52.668;6.860;2023-03-14T14:10:04;8.70;99.90
59857;DHT22;45733;52.668;6.860;2023-03-14T14:12:31;8.70;99.90
59857;DHT22;45733;52.668;6.860;2023-03-14T14:15:07;8.80;99.90
59857;DHT22;45733;52.668;6.860;2023-03-14T14:17:43;8.80;99.90
59857;DHT22;45733;52.668;6.860;2023-03-14T14:22:52;9.00;99.90
59857;DHT22;45733;52.668;6.860;2023-03-14T14:25:18;9.00;99.90
59857;DHT22;45733;52.668;6.860;2023-03-14T14:27:48;8.90;99.90
59857;DHT22;45733;52.668;6.860;2023-03-14T14:32:42;8.70;99.90
59857;DHT22;45733;52.668;6.860;2023-03-14T14:35:10;8.90;99.90
59857;DHT22;45733;52.668;6.860;2023-03-14T14:37:48;8.40;99.90
59857;DHT22;45733;52.668;6.860;2023-03-14T14:40:20;8.60;99.90
59857;DHT22;45733;52.668;6.860;2023-03-14T14:42:47;8.20;99.90
59857;DHT22;45733;52.668;6.860;2023-03-14T14:45:16;7.80;99.90
59857;DHT22;45733;52.668;6.860;2023-03-14T14:48:09;7.60;99.90
59857;DHT22;45733;52.668;6.860;2023-03-14T14:55:52;7.20;99.90
59857;DHT22;45733;52.668;6.860;2023-03-14T14:58:32;7.30;99.90
59857;DHT22;45733;52.668;6.860;2023-03-14T15:01:07;8.00;99.90
59857;DHT22;45733;52.668;6.860;2023-03-14T15:03:34;7.90;99.90
59857;DHT22;45733;52.668;6.860;2023-03-14T15:06:01;7.70;99.90
59857;DHT22;45733;52.668;6.860;2023-03-14T15:08:27;7.50;99.90
59857;DHT22;45733;52.668;6.860;2023-03-14T15:10:54;7.30;99.90
59857;DHT22;45733;52.668;6.860;2023-03-14T15:13:20;7.30;99.90
59857;DHT22;45733;52.668;6.860;2023-03-14T15:15:47;7.50;99.90
59857;DHT22;45733;52.668;6.860;2023-03-14T15:18:15;7.50;99.90
59857;DHT22;45733;52.668;6.860;2023-03-14T15:20:42;7.60;99.90
59857;DHT22;45733;52.668;6.860;2023-03-14T15:23:13;7.80;99.90
59857;DHT22;45733;52.668;6.860;2023-03-14T15:25:39;8.20;99.90
59857;DHT22;45733;52.668;6.860;2023-03-14T15:28:20;8.40;99.90
59857;DHT22;45733;52.668;6.860;2023-03-14T15:30:51;7.90;99.90
59857;DHT22;45733;52.668;6.860;2023-03-14T15:33:18;7.90;99.90
59857;DHT22;45733;52.668;6.860;2023-03-14T15:35:45;7.70;99.90
59857;DHT22;45733;52.668;6.860;2023-03-14T15:38:16;7.70;99.90
59857;DHT22;45733;52.668;6.860;2023-03-14T15:40:43;7.60;99.90
59857;DHT22;45733;52.668;6.860;2023-03-14T15:43:08;7.60;99.90
59857;DHT22;45733;52.668;6.860;2023-03-14T15:45:34;7.50;99.90
59857;DHT22;45733;52.668;6.860;2023-03-14T15:48:00;7.50;99.90
59857;DHT22;45733;52.668;6.860;2023-03-14T15:50:27;7.80;99.90
59857;DHT22;45733;52.668;6.860;2023-03-14T15:52:53;8.00;99.90
59857;DHT22;45733;52.668;6.860;2023-03-14T15:55:19;8.30;99.90
59857;DHT22;45733;52.668;6.860;2023-03-14T15:57:44;8.30;99.90
59857;DHT22;45733;52.668;6.860;2023-03-14T16:00:18;8.10;99.90
59857;DHT22;45733;52.668;6.860;2023-03-14T16:02:44;7.70;99.90
59857;DHT22;45733;52.668;6.860;2023-03-14T16:05:11;7.50;99.90
59857;DHT22;45733;52.668;6.860;2023-03-14T16:07:38;7.30;99.90
59857;DHT22;45733;52.668;6.860;2023-03-14T16:10:05;7.10;99.90
59857;DHT22;45733;52.668;6.860;2023-03-14T16:12:32;6.90;99.90
59857;DHT22;45733;52.668;6.860;2023-03-14T16:14:58;6.80;99.90
59857;DHT22;45733;52.668;6.860;2023-03-14T16:17:24;6.70;99.90
59857;DHT22;45733;52.668;6.860;2023-03-14T16:19:49;6.60;99.90
59857;DHT22;45733;52.668;6.860;2023-03-14T16:22:15;6.50;99.90
59857;DHT22;45733;52.668;6.860;2023-03-14T16:24:41;6.60;99.90
59857;DHT22;45733;52.668;6.860;2023-03-14T16:27:07;6.50;99.90
59857;DHT22;45733;52.668;6.860;2023-03-14T16:29:32;6.40;99.90
59857;DHT22;45733;52.668;6.860;2023-03-14T16:31:58;6.40;99.90
59857;DHT22;45733;52.668;6.860;2023-03-14T16:34:24;6.30;99.90
59857;DHT22;45733;52.668;6.860;2023-03-14T16:36:49;6.30;99.90
59857;DHT22;45733;52.668;6.860;2023-03-14T16:39:18;6.20;99.90
59857;DHT22;45733;52.668;6.860;2023-03-14T16:41:45;6.30;99.90
59857;DHT22;45733;52.668;6.860;2023-03-14T16:44:11;6.20;99.90
59857;DHT22;45733;52.668;6.860;2023-03-14T16:46:36;6.10;99.90
59857;DHT22;45733;52.668;6.860;2023-03-14T16:49:03;6.10;99.90
59857;DHT22;45733;52.668;6.860;2023-03-14T16:51:29;6.00;99.90
59857;DHT22;45733;52.668;6.860;2023-03-14T16:53:55;6.00;99.90
59857;DHT22;45733;52.668;6.860;2023-03-14T16:56:21;5.80;99.90